Forside
METAR-TAF:

METAR-TAF

Lufthavne :

Irkutsk, Rusland

Breddekreds: 52-16N, længdekreds: 104-19E, højde: 513 m

Aktuelle vejr

Denne rapport blev lavet for 17 minutter siden, kl. 17:00 UTC
Vind 2 kt fra øst
Temperatur 15°C
Fugtighed 94%
Tryk 1009 hPa
Sigt 10 km eller mere
ingen skyer under 1500m og ingen cumulonimbus

METAR: UIII 251700Z 10001MPS CAVOK 15/14 Q1009 R12/290150 NOSIG RMK QFE714/0953

Tid: 01:17 (17:17 UTC)

Vejrudsigter

Denne rapport blev lavet for 3 timer og 17 minutter siden, kl. 14:00 UTC
Foreløbig gælder fra 25 på 15 UTC til 26 på 15 UTC
Vind 2 kt fra varierende retninger
Sigt: 0300 m
i en højde af 100 ft
tåge
Midlertidig
fra 25 på 15 UTC til 26 på 01 UTC
Sigt: 1500 m
Spredte skyer i en højde af 200 ft
dis
ændring
fra 26 på 01 UTC til 26 på 03 UTC
Sigt 10 km eller mere
Spredte skyer i en højde af 2000 ft, Cumulonimbus.

TAF: UIII 251400Z 2515/2615 VRB01MPS 0300 FG VV001 TEMPO 2515/2601 1500 BR SCT002 BECMG 2601/2603 9999 NSW SCT020CB

Vejrobservationer og prognoser fra mere end 4000 lufthavne (METAR og TAF).

De gule og røde prikker repræsenterer de meteorologiske stationer.

Flyt musen over at se navnet på stationen.

Så klik over at se vejr observationer og prognoser.

At skifte det kort: Klik på de grønne knapper med et sort kors for at zoome ind; på den grønne knap med en bindestreg for at zoome ud; eller på de grønne pile for tilstødende kort.


METAR-TAF: